Time;durP1;ratioP1;P1;durP2;ratioP2;P2;SDS_P1;SDS_P2;PMS_P1;PMS_P2;Temp;Humidity;BMP_temperature;BMP_pressure;BME280_temperature;BME280_humidity;BME280_pressure;Samples;Min_cycle;Max_cycle;Signal;HPM_P1;HPM_P2
2022/10/04 00:01:52;;;;;;;14.95;9.98;;;;;;;6.62;100.00;101220.25;4959428;29;20258;-73
2022/10/04 00:04:25;;;;;;;14.57;8.65;;;;;;;6.57;100.00;101225.69;4959489;29;20296;-73
2022/10/04 00:06:57;;;;;;;22.95;10.30;;;;;;;6.58;100.00;101232.81;4958967;29;20221;-75
2022/10/04 00:09:28;;;;;;;16.27;9.68;;;;;;;6.61;100.00;101229.19;4958389;28;20220;-73
2022/10/04 00:11:56;;;;;;;13.95;9.02;;;;;;;6.44;100.00;101227.69;4958287;29;20703;-74
2022/10/04 00:14:28;;;;;;;14.30;9.65;;;;;;;6.44;100.00;101222.34;4958135;29;20196;-74
2022/10/04 00:16:56;;;;;;;13.27;9.73;;;;;;;6.51;100.00;101207.03;4958550;29;20204;-74
2022/10/04 00:19:42;;;;;;;12.52;9.75;;;;;;;6.57;100.00;101206.94;4958140;29;20224;-72
2022/10/04 00:22:11;;;;;;;15.30;10.07;;;;;;;6.45;100.00;101210.69;4958415;29;20211;-73
2022/10/04 00:24:58;;;;;;;17.02;10.63;;;;;;;6.36;100.00;101216.19;5014299;28;20288;-74
2022/10/04 00:27:26;;;;;;;14.48;10.40;;;;;;;6.39;100.00;101218.81;5038720;28;20237;-74
2022/10/04 00:30:16;;;;;;;15.95;9.68;;;;;;;6.41;100.00;101221.47;5038939;28;20672;-73
2022/10/04 00:32:47;;;;;;;15.88;9.45;;;;;;;6.33;100.00;101218.03;5039387;28;20193;-75
2022/10/04 00:35:50;;;;;;;16.45;10.63;;;;;;;6.29;100.00;101213.63;5039217;28;20201;-74
2022/10/04 00:38:25;;;;;;;16.33;11.60;;;;;;;6.34;100.00;101206.44;5038667;28;20198;-74
2022/10/04 00:40:59;;;;;;;19.08;11.85;;;;;;;6.36;100.00;101204.63;5038473;28;20222;-75
2022/10/04 00:43:29;;;;;;;13.15;10.68;;;;;;;6.33;100.00;101202.88;5038002;28;20229;-73
2022/10/04 00:46:00;;;;;;;13.88;9.65;;;;;;;6.29;100.00;101208.25;5039151;28;20598;-75
2022/10/04 00:48:36;;;;;;;16.95;10.13;;;;;;;6.25;100.00;101196.75;5038634;28;20205;-72
2022/10/04 00:51:13;;;;;;;13.10;9.77;;;;;;;6.24;100.00;101195.88;5038770;28;20217;-74
2022/10/04 00:53:51;;;;;;;17.45;9.90;;;;;;;6.20;100.00;101187.91;5041153;28;20182;-72
2022/10/04 00:56:24;;;;;;;17.60;10.13;;;;;;;6.11;100.00;101201.44;5046134;28;20181;-73
2022/10/04 00:59:11;;;;;;;21.42;10.80;;;;;;;6.20;100.00;101203.97;5046152;28;20190;-73
2022/10/04 01:01:38;;;;;;;21.13;10.63;;;;;;;6.23;100.00;101201.22;5045296;28;20296;-74
2022/10/04 01:04:12;;;;;;;13.45;10.45;;;;;;;6.18;100.00;101203.09;5044366;28;20244;-73
2022/10/04 01:06:41;;;;;;;15.85;10.15;;;;;;;6.14;100.00;101204.03;5044128;28;20208;-73
2022/10/04 01:09:11;;;;;;;14.32;10.15;;;;;;;6.04;100.00;101198.81;5043880;28;20609;-74
2022/10/04 01:11:45;;;;;;;18.23;10.75;;;;;;;6.09;100.00;101200.56;5044209;28;20266;-72
2022/10/04 01:14:20;;;;;;;16.27;10.13;;;;;;;6.09;100.00;101198.75;5043428;28;20266;-74
2022/10/04 01:16:46;;;;;;;16.67;10.98;;;;;;;6.08;100.00;101193.41;5042893;28;20192;-73
2022/10/04 01:19:29;;;;;;;11.73;9.50;;;;;;;6.02;100.00;101207.78;5040860;28;20222;-74
2022/10/04 01:22:10;;;;;;;19.10;10.98;;;;;;;6.03;100.00;101205.06;5038406;28;20209;-73
2022/10/04 01:24:39;;;;;;;22.45;11.35;;;;;;;6.03;100.00;101202.38;5037878;28;20224;-73
2022/10/04 01:27:33;;;;;;;16.10;10.02;;;;;;;5.87;100.00;101190.09;5038024;28;20715;-73
2022/10/04 01:30:01;;;;;;;16.00;9.95;;;;;;;5.93;100.00;101203.41;5038292;28;20715;-72
2022/10/04 01:32:29;;;;;;;16.75;9.48;;;;;;;6.00;100.00;101199.75;5038225;28;20206;-74
2022/10/04 01:34:57;;;;;;;16.75;10.88;;;;;;;6.01;100.00;101174.78;5038062;28;20205;-72
2022/10/04 01:37:24;;;;;;;15.50;10.20;;;;;;;6.09;100.00;101164.00;5038301;28;20801;-74
2022/10/04 01:39:51;;;;;;;15.68;11.23;;;;;;;6.09;100.00;101158.66;5037567;28;20236;-73
2022/10/04 01:42:23;;;;;;;18.38;12.35;;;;;;;6.04;100.00;101169.41;5037385;28;20236;-74
2022/10/04 01:44:57;;;;;;;14.70;9.10;;;;;;;6.09;100.00;101163.13;5038575;28;20198;-73
2022/10/04 01:47:31;;;;;;;14.00;9.13;;;;;;;5.95;100.00;101155.28;5051176;28;20225;-72
2022/10/04 01:50:01;;;;;;;13.00;9.20;;;;;;;5.84;100.00;101150.94;5053797;28;20683;-72
2022/10/04 01:52:35;;;;;;;16.60;9.95;;;;;;;5.83;100.00;101151.84;5043704;28;20227;-73
2022/10/04 01:55:06;;;;;;;15.40;10.20;;;;;;;5.85;100.00;101154.47;5037710;28;20216;-73
2022/10/04 01:57:37;;;;;;;19.17;10.05;;;;;;;5.89;100.00;101156.22;5038409;28;20569;-71
2022/10/04 02:00:08;;;;;;;17.38;9.77;;;;;;;5.95;100.00;101166.00;5039917;28;20232;-71
2022/10/04 02:02:40;;;;;;;17.15;10.35;;;;;;;6.02;100.00;101165.00;5041682;28;20372;-74
2022/10/04 02:05:11;;;;;;;14.50;9.63;;;;;;;6.11;100.00;101161.31;5041176;28;20559;-74
2022/10/04 02:07:40;;;;;;;18.63;10.23;;;;;;;6.08;100.00;101143.47;5039999;28;20205;-74
2022/10/04 02:10:11;;;;;;;16.98;11.23;;;;;;;5.98;100.00;101145.41;5038756;28;20226;-74
2022/10/04 02:12:44;;;;;;;14.57;10.20;;;;;;;6.03;100.00;101159.59;5037417;28;20186;-73
2022/10/04 02:15:13;;;;;;;15.23;9.98;;;;;;;6.15;100.00;101150.53;5036804;28;20733;-74
2022/10/04 02:17:42;;;;;;;15.27;10.20;;;;;;;6.08;100.00;101156.84;5036605;28;20205;-73
2022/10/04 02:20:14;;;;;;;16.73;9.45;;;;;;;6.05;100.00;101147.09;5037430;28;20218;-75
2022/10/04 02:22:43;;;;;;;17.42;10.73;;;;;;;6.10;100.00;101143.47;5036785;28;20194;-75
2022/10/04 02:25:10;;;;;;;14.32;10.63;;;;;;;6.12;100.00;101138.97;5037420;28;20225;-73
2022/10/04 02:27:37;;;;;;;14.68;9.63;;;;;;;6.22;100.00;101140.63;5037690;28;20221;-73
2022/10/04 02:30:06;;;;;;;16.05;10.80;;;;;;;6.28;100.00;101132.47;5037383;28;20249;-74
2022/10/04 02:35:21;;;;;;;16.60;10.00;;;;;;;6.37;100.00;101128.78;5037701;28;20209;-74
2022/10/04 02:37:51;;;;;;;20.20;10.80;;;;;;;6.51;100.00;101120.53;5035006;28;20202;-73
2022/10/04 02:40:23;;;;;;;17.65;9.60;;;;;;;6.47;100.00;101117.03;5035050;28;20226;-73
2022/10/04 02:42:58;;;;;;;21.95;10.57;;;;;;;6.63;100.00;101123.00;5037666;28;20212;-75
2022/10/04 02:45:33;;;;;;;14.40;9.73;;;;;;;6.62;100.00;101121.22;5045327;28;20288;-73
2022/10/04 02:48:06;;;;;;;16.42;10.55;;;;;;;6.60;100.00;101125.72;5043119;28;20205;-72
2022/10/04 02:50:37;;;;;;;19.35;11.25;;;;;;;6.71;100.00;101134.44;5038582;28;20222;-74
2022/10/04 02:53:12;;;;;;;17.15;10.20;;;;;;;6.79;100.00;101135.19;5036487;28;20189;-74
2022/10/04 02:55:41;;;;;;;17.63;9.75;;;;;;;6.86;100.00;101136.84;5037004;28;20193;-73
2022/10/04 02:58:11;;;;;;;16.17;9.48;;;;;;;6.86;100.00;101134.16;5036652;28;20193;-75
2022/10/04 03:00:47;;;;;;;15.75;10.18;;;;;;;6.95;100.00;101146.50;5037108;28;20230;-74
2022/10/04 03:03:22;;;;;;;17.83;10.15;;;;;;;7.00;100.00;101146.41;5037260;28;20204;-75
2022/10/04 03:06:01;;;;;;;17.08;10.70;;;;;;;7.15;100.00;101142.56;5036819;28;20186;-74
2022/10/04 03:08:34;;;;;;;24.38;10.90;;;;;;;7.27;100.00;101148.56;5037013;28;20206;-74
2022/10/04 03:11:04;;;;;;;18.80;10.55;;;;;;;7.28;100.00;101142.31;5036239;28;20228;-73
2022/10/04 03:13:31;;;;;;;25.95;11.38;;;;;;;7.13;100.00;101123.84;5036249;28;20194;-73
2022/10/04 03:15:58;;;;;;;15.93;10.80;;;;;;;7.24;100.00;101120.97;5036696;28;20203;-73
2022/10/04 03:18:26;;;;;;;24.85;12.20;;;;;;;7.27;100.00;101131.59;5036216;28;20194;-74
2022/10/04 03:20:53;;;;;;;19.88;11.88;;;;;;;7.39;100.00;101125.09;5036726;28;20309;-73
2022/10/04 03:23:20;;;;;;;17.58;11.55;;;;;;;7.47;100.00;101129.41;5039696;28;20205;-74
2022/10/04 03:25:52;;;;;;;22.10;11.68;;;;;;;7.61;100.00;101126.41;5040340;28;20206;-74
2022/10/04 03:28:19;;;;;;;21.70;12.48;;;;;;;7.73;100.00;101130.63;5039504;28;20692;-76
2022/10/04 03:30:47;;;;;;;16.60;10.15;;;;;;;7.80;100.00;101126.91;5041170;28;20222;-73
2022/10/04 03:33:20;;;;;;;20.02;11.27;;;;;;;7.79;100.00;101126.94;5040432;28;20721;-75
2022/10/04 03:35:52;;;;;;;18.85;11.18;;;;;;;7.84;100.00;101122.34;5040137;28;20207;-76
2022/10/04 03:38:20;;;;;;;19.13;9.88;;;;;;;7.92;100.00;101115.03;5039724;28;20270;-75
2022/10/04 03:40:52;;;;;;;25.42;11.88;;;;;;;7.97;100.00;101121.16;5040345;28;20281;-75
2022/10/04 03:43:21;;;;;;;20.55;11.30;;;;;;;8.02;100.00;101116.56;5040982;28;20194;-76
2022/10/04 03:45:49;;;;;;;18.30;11.32;;;;;;;8.00;100.00;101118.38;5040653;28;20664;-74
2022/10/04 03:48:24;;;;;;;20.13;12.57;;;;;;;8.07;100.00;101122.72;5040938;28;20277;-74
2022/10/04 03:50:54;;;;;;;21.77;11.85;;;;;;;8.10;100.00;101116.41;5040674;28;20229;-72
2022/10/04 03:53:30;;;;;;;19.10;11.65;;;;;;;8.15;100.00;101112.66;5041027;28;20198;-74
2022/10/04 03:55:58;;;;;;;20.90;12.15;;;;;;;8.22;100.00;101120.59;5045607;28;20274;-74
2022/10/04 03:58:28;;;;;;;16.40;11.48;;;;;;;8.24;100.00;101119.63;5045460;28;20226;-74
2022/10/04 04:01:05;;;;;;;18.55;10.50;;;;;;;8.26;100.00;101112.41;5045079;28;20234;-74
2022/10/04 04:03:41;;;;;;;16.30;10.70;;;;;;;8.26;100.00;101116.91;5043175;28;20204;-73
2022/10/04 04:06:16;;;;;;;19.80;11.38;;;;;;;8.25;100.00;101116.00;5044244;28;20248;-74
2022/10/04 04:08:47;;;;;;;15.60;11.13;;;;;;;8.34;100.00;101113.13;5039306;28;20406;-72
2022/10/04 04:11:19;;;;;;;18.70;11.80;;;;;;;8.39;100.00;101109.41;5039989;28;20218;-74
2022/10/04 04:13:51;;;;;;;22.60;10.80;;;;;;;8.43;100.00;101119.19;5042246;28;20187;-74
2022/10/04 04:16:19;;;;;;;23.58;12.68;;;;;;;8.42;100.00;101114.75;5039310;28;20257;-74
2022/10/04 04:18:48;;;;;;;16.77;11.50;;;;;;;8.39;100.00;101110.31;5040016;28;20193;-72
2022/10/04 04:21:19;;;;;;;26.17;16.48;;;;;;;8.41;100.00;101103.16;5042424;28;20212;-73
2022/10/04 04:23:49;;;;;;;29.35;19.80;;;;;;;8.44;100.00;101104.88;5028199;28;20206;-75
2022/10/04 04:26:26;;;;;;;25.45;15.45;;;;;;;8.41;100.00;101094.19;5020262;28;20274;-73
2022/10/04 04:28:56;;;;;;;22.17;12.60;;;;;;;8.39;100.00;101099.59;5020777;28;20220;-73
2022/10/04 04:31:28;;;;;;;24.05;12.43;;;;;;;8.46;100.00;101101.22;5021389;28;20207;-73
2022/10/04 04:33:59;;;;;;;19.38;10.80;;;;;;;8.47;100.00;101111.03;5055419;28;20648;-74
2022/10/04 04:36:28;;;;;;;23.00;10.88;;;;;;;8.52;100.00;101106.44;5045869;28;20194;-73
2022/10/04 04:41:51;;;;;;;18.90;10.50;;;;;;;8.54;100.00;101109.06;5031254;28;20208;-70
2022/10/04 04:44:19;;;;;;;19.33;12.60;;;;;;;8.58;100.00;101107.19;5031892;28;20192;-72
2022/10/04 04:46:46;;;;;;;17.27;11.05;;;;;;;8.51;100.00;101101.09;5026387;28;20204;-73
2022/10/04 04:49:16;;;;;;;15.10;10.60;;;;;;;8.47;100.00;101100.28;5018328;28;20221;-73
2022/10/04 04:51:49;;;;;;;17.65;10.60;;;;;;;8.47;100.00;101097.59;5018650;28;20201;-73
2022/10/04 04:54:17;;;;;;;14.85;10.93;;;;;;;8.48;100.00;101104.75;5018483;28;20243;-73
2022/10/04 04:56:44;;;;;;;15.75;10.43;;;;;;;8.46;100.00;101098.53;5018434;28;20200;-75
2022/10/04 04:59:12;;;;;;;13.82;10.30;;;;;;;8.46;100.00;101109.28;5018312;28;20231;-75
2022/10/04 05:01:43;;;;;;;12.63;9.25;;;;;;;8.50;100.00;101108.28;5019196;28;20258;-73
2022/10/04 05:04:18;;;;;;;14.82;9.88;;;;;;;8.50;100.00;101105.59;5018250;28;20201;-71
2022/10/04 05:06:47;;;;;;;13.38;9.45;;;;;;;8.51;100.00;101096.59;5020966;28;20272;-72
2022/10/04 05:09:25;;;;;;;15.05;9.85;;;;;;;8.40;100.00;101095.09;5024086;28;20255;-74
2022/10/04 05:11:57;;;;;;;12.48;9.02;;;;;;;8.39;100.00;101099.59;5030907;28;20227;-74
2022/10/04 05:14:24;;;;;;;15.00;10.35;;;;;;;8.48;100.00;101102.06;5051214;28;20213;-74
2022/10/04 05:16:53;;;;;;;17.55;10.48;;;;;;;8.48;100.00;101107.44;5045620;28;20209;-74
2022/10/04 05:19:23;;;;;;;16.02;10.75;;;;;;;8.44;100.00;101105.75;5039532;28;20653;-74
2022/10/04 05:21:54;;;;;;;16.60;12.20;;;;;;;8.43;100.00;101108.47;5038226;28;20230;-73
2022/10/04 05:24:24;;;;;;;14.07;10.20;;;;;;;8.41;100.00;101108.53;5039749;28;20192;-75
2022/10/04 05:26:53;;;;;;;13.18;9.75;;;;;;;8.44;100.00;101102.19;5038478;28;20279;-75
2022/10/04 05:29:23;;;;;;;14.57;12.13;;;;;;;8.39;100.00;101102.28;5038372;28;20222;-75
2022/10/04 05:31:55;;;;;;;12.98;9.40;;;;;;;8.34;100.00;101113.13;5038382;28;20208;-76
2022/10/04 05:34:24;;;;;;;10.68;7.65;;;;;;;8.34;100.00;101114.91;5038310;28;20192;-73
2022/10/04 05:37:05;;;;;;;10.65;7.57;;;;;;;8.33;100.00;101105.09;5038083;28;20287;-75
2022/10/04 05:39:38;;;;;;;10.95;7.90;;;;;;;8.41;100.00;101108.53;5037497;28;20717;-74
2022/10/04 05:42:15;;;;;;;13.20;10.13;;;;;;;8.36;100.00;101107.69;5037203;28;20201;-74
2022/10/04 05:44:51;;;;;;;19.65;14.73;;;;;;;8.40;100.00;101120.16;5037001;28;20187;-75
2022/10/04 05:47:22;;;;;;;15.43;11.75;;;;;;;8.45;100.00;101117.34;5037679;28;20625;-73
2022/10/04 05:49:51;;;;;;;12.95;9.68;;;;;;;8.53;100.00;101108.19;5037039;28;20230;-73
2022/10/04 05:52:29;;;;;;;25.95;12.82;;;;;;;8.43;100.00;101120.06;5037204;28;20567;-74
2022/10/04 05:55:17;;;;;;;17.73;13.10;;;;;;;8.57;100.00;101119.75;5038078;28;20218;-75
2022/10/04 05:57:52;;;;;;;15.15;10.98;;;;;;;8.68;100.00;101116.75;5036873;28;20189;-74
2022/10/04 06:00:20;;;;;;;17.27;10.88;;;;;;;8.65;100.00;101108.78;5074625;22;20236;-74
2022/10/04 06:03:28;;;;;;;12.38;9.18;;;;;;;8.67;100.00;101113.19;5094085;28;20209;-75
2022/10/04 06:05:56;;;;;;;14.35;8.90;;;;;;;8.71;100.00;101112.22;4993241;28;20217;-74
2022/10/04 06:08:34;;;;;;;11.35;8.45;;;;;;;8.80;100.00;101124.50;4991441;28;20226;-74
2022/10/04 06:11:23;;;;;;;16.60;12.43;;;;;;;8.87;100.00;101118.06;5006808;28;20344;-73
2022/10/04 06:14:13;;;;;;;24.52;16.50;;;;;;;8.92;100.00;101125.97;5011385;28;20203;-74
2022/10/04 06:16:58;;;;;;;26.05;13.05;;;;;;;8.95;100.00;101136.63;4934051;29;20211;-75
2022/10/04 06:19:57;;;;;;;23.60;16.88;;;;;;;9.01;100.00;101140.97;4933164;29;20204;-75
2022/10/04 06:22:25;;;;;;;18.27;12.63;;;;;;;9.07;100.00;101147.06;4931187;29;20677;-76
2022/10/04 06:24:58;;;;;;;16.80;10.95;;;;;;;9.16;100.00;101140.56;4933287;29;20715;-73
2022/10/04 06:27:34;;;;;;;16.98;11.15;;;;;;;9.23;100.00;101142.16;4933150;29;20214;-74
2022/10/04 06:30:05;;;;;;;17.88;10.52;;;;;;;9.26;100.00;101141.19;4933363;29;20235;-77
2022/10/04 06:33:15;;;;;;;17.35;11.57;;;;;;;9.33;100.00;101140.94;4933424;29;20193;-75
2022/10/04 06:36:05;;;;;;;16.20;11.82;;;;;;;9.36;100.00;101146.25;4936805;29;20313;-75
2022/10/04 06:38:59;;;;;;;16.65;11.60;;;;;;;9.44;100.00;101139.78;4939267;28;20710;-71
2022/10/04 06:41:51;;;;;;;19.25;11.38;;;;;;;9.56;100.00;101144.78;5026774;28;20263;-77
2022/10/04 06:44:35;;;;;;;15.07;11.77;;;;;;;9.67;100.00;101144.47;5019384;28;20192;-73
2022/10/04 06:47:18;;;;;;;15.85;11.80;;;;;;;9.73;100.00;101147.88;5019175;28;20237;-74
2022/10/04 06:49:51;;;;;;;18.92;11.15;;;;;;;9.75;100.00;101147.84;5014707;28;20222;-74
2022/10/04 06:52:50;;;;;;;18.08;10.70;;;;;;;9.84;100.00;101147.53;5015268;28;20567;-73
2022/10/04 06:55:32;;;;;;;13.73;10.13;;;;;;;9.84;100.00;101150.25;5013491;28;20231;-73
2022/10/04 06:58:24;;;;;;;13.23;10.27;;;;;;;9.77;100.00;101149.53;5013054;28;20271;-75
2022/10/04 07:00:57;;;;;;;15.98;10.50;;;;;;;9.86;100.00;101152.84;5010456;28;20255;-74
2022/10/04 07:03:30;;;;;;;14.68;10.95;;;;;;;9.88;100.00;101140.25;5011483;28;20393;-74
2022/10/04 07:06:02;;;;;;;15.73;10.82;;;;;;;9.97;100.00;101139.97;5012399;28;20212;-74
2022/10/04 07:08:39;;;;;;;16.08;12.30;;;;;;;9.97;100.00;101124.72;5012603;28;20222;-74
2022/10/04 07:11:14;;;;;;;16.90;10.75;;;;;;;10.05;100.00;101123.59;5011909;28;20229;-74
2022/10/04 07:13:51;;;;;;;15.60;10.82;;;;;;;10.13;100.00;101119.72;5011387;28;20223;-73
2022/10/04 07:16:29;;;;;;;14.02;10.10;;;;;;;10.32;100.00;101120.03;5010676;28;20301;-74
2022/10/04 07:19:03;;;;;;;18.73;11.85;;;;;;;10.41;100.00;101111.66;5009891;28;20622;-74
2022/10/04 07:21:39;;;;;;;17.48;12.65;;;;;;;10.50;100.00;101105.06;5019589;28;20249;-75
2022/10/04 07:24:11;;;;;;;17.77;11.77;;;;;;;10.70;100.00;101103.53;5010657;28;20202;-73
2022/10/04 07:26:45;;;;;;;19.40;12.00;;;;;;;10.53;100.00;101099.56;5009769;28;20190;-73
2022/10/04 07:29:19;;;;;;;13.23;9.50;;;;;;;10.47;100.00;101102.50;5009513;28;20242;-74
2022/10/04 07:31:48;;;;;;;15.45;10.82;;;;;;;10.53;100.00;101099.56;5078079;28;20202;-74
2022/10/04 07:34:21;;;;;;;11.45;9.98;;;;;;;10.74;100.00;101103.38;5092940;28;20204;-75
2022/10/04 07:36:51;;;;;;;12.75;10.60;;;;;;;10.99;100.00;101103.38;5093666;28;20180;-72
2022/10/04 07:39:22;;;;;;;12.48;9.40;;;;;;;11.13;100.00;101110.09;5100511;28;20187;-74
2022/10/04 07:41:53;;;;;;;10.90;8.70;;;;;;;11.18;100.00;101100.88;5115514;28;20198;-74
2022/10/04 07:44:30;;;;;;;10.48;8.20;;;;;;;11.18;100.00;101100.88;5122944;28;20207;-73
2022/10/04 07:47:02;;;;;;;11.05;9.50;;;;;;;11.20;100.00;101101.69;5113804;28;20183;-74
2022/10/04 07:49:30;;;;;;;10.30;8.40;;;;;;;11.46;100.00;101098.03;5132455;28;20230;-74
2022/10/04 07:52:14;;;;;;;11.80;9.63;;;;;;;11.61;100.00;101109.19;5132213;28;20195;-74
2022/10/04 07:54:47;;;;;;;11.38;9.20;;;;;;;11.71;100.00;101102.47;5132224;28;20205;-74
2022/10/04 07:57:21;;;;;;;12.15;8.50;;;;;;;11.98;100.00;101100.53;5131943;28;20194;-73
2022/10/04 07:59:59;;;;;;;12.00;9.88;;;;;;;12.33;100.00;101105.47;5132037;28;20222;-74
2022/10/04 08:02:37;;;;;;;11.25;9.50;;;;;;;12.29;100.00;101110.97;5134303;28;20187;-74
2022/10/04 08:05:19;;;;;;;12.63;9.23;;;;;;;12.34;100.00;101115.31;5132548;28;20194;-75
2022/10/04 08:08:00;;;;;;;11.07;8.60;;;;;;;12.58;100.00;101117.00;5122131;28;20644;-76
2022/10/04 08:10:34;;;;;;;11.45;8.85;;;;;;;12.63;100.00;101117.66;5117911;28;20312;-75
2022/10/04 08:13:08;;;;;;;12.18;9.77;;;;;;;12.88;100.00;101109.38;5117891;28;20210;-78
2022/10/04 08:15:40;;;;;;;12.30;9.05;;;;;;;13.02;100.00;101110.59;5117264;28;20187;-74
2022/10/04 08:18:22;;;;;;;12.68;10.02;;;;;;;13.26;100.00;101097.81;5117961;28;20191;-74
2022/10/04 08:20:56;;;;;;;12.65;9.98;;;;;;;13.55;100.00;101097.38;5115887;28;20223;-74
2022/10/04 08:23:40;;;;;;;12.05;9.35;;;;;;;14.43;100.00;101095.84;5117567;28;20639;-74
2022/10/04 08:26:19;;;;;;;11.60;8.70;;;;;;;15.16;100.00;101102.03;5116006;28;20604;-74
2022/10/04 08:32:03;;;;;;;10.32;8.85;;;;;;;16.01;100.00;101098.28;5119179;28;20255;-73
2022/10/04 08:34:46;;;;;;;14.90;9.73;;;;;;;16.26;100.00;101100.47;5120166;28;20214;-73
2022/10/04 08:37:28;;;;;;;12.57;9.32;;;;;;;17.29;100.00;101088.84;5119741;28;20183;-75
2022/10/04 08:40:22;;;;;;;12.15;8.63;;;;;;;17.53;98.99;101093.72;5118938;28;20605;-76
2022/10/04 08:43:15;;;;;;;10.55;9.00;;;;;;;17.71;95.66;101100.72;5117426;28;20193;-74
2022/10/04 08:46:22;;;;;;;14.82;10.65;;;;;;;18.47;90.04;101102.09;5116483;28;20184;-74
2022/10/04 08:49:16;;;;;;;13.63;9.47;;;;;;;18.23;88.13;101099.19;5053163;28;20228;-75
2022/10/04 08:52:25;;;;;;;10.80;9.13;;;;;;;17.73;87.98;101100.63;5052452;28;20432;-73
2022/10/04 08:55:31;;;;;;;13.63;9.30;;;;;;;17.83;89.57;101100.94;5052790;28;20434;-75
2022/10/04 08:58:16;;;;;;;10.33;8.27;;;;;;;19.04;81.35;101091.91;5053812;28;20443;-74
2022/10/04 09:01:08;;;;;;;19.53;12.47;;;;;;;19.67;76.66;101095.63;5053029;28;20468;-76
2022/10/04 09:04:07;;;;;;;18.20;11.10;;;;;;;19.89;71.23;101084.03;5052929;28;20446;-74
2022/10/04 09:06:45;;;;;;;12.43;8.87;;;;;;;20.25;71.21;101085.03;5052806;28;20424;-76
2022/10/04 09:09:47;;;;;;;7.50;6.70;;;;;;;19.58;71.64;101083.50;5053046;28;20476;-74
2022/10/04 09:12:44;;;;;;;8.30;7.43;;;;;;;20.71;67.58;101087.00;4997418;28;20454;-74
2022/10/04 09:15:46;;;;;;;7.30;6.60;;;;;;;21.59;59.45;101083.75;4919602;29;20592;-76
2022/10/04 09:18:22;;;;;;;8.10;6.33;;;;;;;22.49;58.22;101083.63;4843991;29;20460;-76
2022/10/04 09:20:57;;;;;;;6.23;5.60;;;;;;;23.53;54.71;101085.56;4842827;29;20533;-73
2022/10/04 09:23:57;;;;;;;7.70;6.20;;;;;;;24.45;50.29;101097.47;4846131;29;20524;-76
2022/10/04 09:26:37;;;;;;;6.47;5.83;;;;;;;25.38;46.89;101098.78;4885451;29;20459;-74
2022/10/04 09:29:15;;;;;;;8.17;6.40;;;;;;;26.04;45.18;101091.44;4898073;29;20914;-77
2022/10/04 09:32:17;;;;;;;6.47;5.50;;;;;;;26.54;43.54;101085.44;4898793;29;20427;-76
2022/10/04 09:35:06;;;;;;;6.10;5.50;;;;;;;26.07;43.57;101085.59;4906228;29;20460;-76
2022/10/04 09:37:46;;;;;;;6.20;5.60;;;;;;;26.02;44.16;101085.19;4902853;29;20427;-73
2022/10/04 09:40:49;;;;;;;5.37;4.87;;;;;;;25.44;45.20;101087.16;4887747;29;20465;-73
2022/10/04 09:43:39;;;;;;;6.27;4.93;;;;;;;25.52;45.32;101079.00;4876840;29;20473;-74
2022/10/04 09:46:28;;;;;;;5.37;4.50;;;;;;;25.14;45.18;101078.03;4841703;29;20473;-74
2022/10/04 09:49:10;;;;;;;6.07;4.80;;;;;;;25.88;43.57;101073.66;4871163;29;20482;-75
2022/10/04 09:52:01;;;;;;;12.20;5.63;;;;;;;24.61;46.19;101077.66;4925358;28;20444;-77
2022/10/04 09:55:04;;;;;;;6.73;5.57;;;;;;;24.61;46.21;101080.44;4979005;28;20893;-75
2022/10/04 09:57:48;;;;;;;6.73;5.13;;;;;;;24.16;47.14;101069.91;5032290;28;20877;-73
2022/10/04 10:00:24;;;;;;;8.30;5.40;;;;;;;24.29;46.65;101071.38;5031109;28;20471;-75
2022/10/04 10:03:30;;;;;;;6.80;5.00;;;;;;;26.35;43.40;101073.50;5031252;28;20428;-75
2022/10/04 10:06:17;;;;;;;6.60;4.80;;;;;;;26.74;40.82;101070.47;5031472;28;20435;-75
2022/10/04 10:08:56;;;;;;;5.33;4.40;;;;;;;25.98;41.63;101062.56;5031088;28;20838;-75
2022/10/04 10:14:36;;;;;;;5.00;4.47;;;;;;;26.96;40.06;101065.50;4954644;28;20433;-75
2022/10/04 10:17:13;;;;;;;5.20;4.70;;;;;;;27.65;39.44;101069.25;4953808;29;20463;-76
2022/10/04 10:19:59;;;;;;;4.83;4.00;;;;;;;26.05;40.92;101060.94;4953321;29;20555;-74
2022/10/04 10:23:04;;;;;;;5.60;3.80;;;;;;;24.11;45.60;101053.81;4959202;28;20428;-75
2022/10/04 10:25:57;;;;;;;5.60;4.40;;;;;;;21.83;53.63;101051.59;5011053;28;20488;-75
2022/10/04 10:28:57;;;;;;;8.23;4.33;;;;;;;21.43;56.89;101054.84;5011404;28;20994;-74
2022/10/04 10:31:47;;;;;;;5.50;4.40;;;;;;;21.41;57.15;101054.13;5011643;28;20855;-75
2022/10/04 10:34:58;;;;;;;5.30;4.80;;;;;;;22.83;52.55;101062.38;4995177;28;20456;-75
2022/10/04 10:37:36;;;;;;;14.10;12.00;;;;;;;23.33;50.72;101053.47;5012263;28;20979;-74
2022/10/04 10:40:38;;;;;;;7.20;6.50;;;;;;;23.15;51.51;101053.22;5025622;28;20441;-73
2022/10/04 10:43:25;;;;;;;5.00;3.80;;;;;;;21.47;55.85;101055.47;5035015;28;20864;-74
2022/10/04 10:46:04;;;;;;;5.23;3.80;;;;;;;21.88;54.91;101055.81;5034588;28;20443;-74
2022/10/04 10:48:50;;;;;;;6.90;3.43;;;;;;;23.07;51.56;101055.81;5035949;28;20911;-73
2022/10/04 10:51:39;;;;;;;5.60;3.50;;;;;;;25.13;44.24;101067.19;5070557;28;20457;-74
2022/10/04 10:54:37;;;;;;;4.70;3.10;;;;;;;24.24;45.29;101059.94;5116204;28;20466;-74
2022/10/04 10:57:16;;;;;;;5.23;3.30;;;;;;;24.41;45.62;101062.97;5113612;28;20425;-75
2022/10/04 11:00:17;;;;;;;4.70;3.23;;;;;;;27.09;39.89;101059.53;5112929;28;20882;-74
2022/10/04 11:03:21;;;;;;;3.67;3.07;;;;;;;28.94;36.47;101068.94;5113176;28;20440;-74
2022/10/04 11:06:13;;;;;;;4.17;2.70;;;;;;;30.33;34.34;101067.75;5113240;28;20509;-74
2022/10/04 11:09:10;;;;;;;4.73;3.07;;;;;;;31.76;32.35;101065.09;5112334;28;20922;-74
2022/10/04 11:12:03;;;;;;;3.17;2.70;;;;;;;33.14;30.92;101071.63;5114471;28;20437;-76
2022/10/04 11:14:55;;;;;;;4.57;2.57;;;;;;;34.23;29.16;101059.88;5117992;28;20437;-73
2022/10/04 11:17:39;;;;;;;5.40;3.70;;;;;;;32.64;30.21;101056.78;5055225;28;20432;-74
2022/10/04 11:20:26;;;;;;;4.33;2.90;;;;;;;29.65;33.96;101047.00;5050228;28;20474;-74
2022/10/04 11:23:38;;;;;;;4.53;2.50;;;;;;;27.13;37.49;101038.81;5050688;28;20474;-76
2022/10/04 11:26:26;;;;;;;3.50;2.73;;;;;;;26.21;39.76;101035.41;4991283;28;20525;-75
2022/10/04 11:29:02;;;;;;;4.77;2.40;;;;;;;29.03;35.07;101042.94;4991459;28;20495;-74
2022/10/04 11:32:18;;;;;;;5.90;2.87;;;;;;;30.54;33.51;101036.50;4991115;28;20500;-75
2022/10/04 11:35:35;;;;;;;5.13;4.27;;;;;;;32.26;30.87;101033.81;4991207;28;20521;-74
2022/10/04 11:38:12;;;;;;;4.80;2.90;;;;;;;30.50;32.58;101036.00;4915187;29;20450;-76
2022/10/04 11:40:57;;;;;;;8.10;3.40;;;;;;;30.29;34.09;101033.03;4915081;29;20523;-78
2022/10/04 11:43:53;;;;;;;3.80;2.50;;;;;;;31.59;32.10;101035.72;4918050;29;20501;-75
2022/10/04 11:46:34;;;;;;;5.50;3.80;;;;;;;32.73;30.65;101032.41;4881233;29;20454;-75
2022/10/04 11:49:12;;;;;;;8.00;2.83;;;;;;;30.36;32.68;101022.91;4880466;29;21000;-75
2022/10/04 11:52:05;;;;;;;5.37;2.97;;;;;;;31.76;31.88;101014.09;4880905;29;20450;-75
2022/10/04 11:54:58;;;;;;;4.57;2.77;;;;;;;31.36;31.98;101008.84;4900531;29;21014;-75
2022/10/04 11:57:33;;;;;;;3.63;2.20;;;;;;;31.15;32.44;101005.91;4916776;29;20456;-74
2022/10/04 12:00:09;;;;;;;4.20;2.67;;;;;;;32.71;31.12;101013.09;4917044;29;20849;-76
2022/10/04 12:03:16;;;;;;;5.33;3.23;;;;;;;32.36;30.86;101012.06;4940320;28;20443;-76
2022/10/04 12:05:57;;;;;;;2.70;2.07;;;;;;;30.67;32.33;100997.84;4976292;28;20459;-76
2022/10/04 12:08:32;;;;;;;2.90;2.13;;;;;;;28.88;35.74;100995.66;4976308;28;20427;-76
2022/10/04 12:14:42;;;;;;;3.20;2.30;;;;;;;31.22;32.79;100987.41;5019002;28;20440;-74
2022/10/04 12:17:38;;;;;;;3.83;1.93;;;;;;;30.64;32.44;100981.53;5025727;28;20440;-75
2022/10/04 12:20:30;;;;;;;6.30;3.37;;;;;;;31.04;32.55;100979.44;5009970;28;20539;-75
2022/10/04 12:23:14;;;;;;;4.03;2.80;;;;;;;33.36;29.91;100980.34;5052296;28;20476;-73